createdAt,value
2018-09-24T00:00:18.173Z,21.3
2018-09-24T00:01:05.373Z,21.3
2018-09-24T00:01:54.876Z,21.3
2018-09-24T00:02:46.093Z,21.3
2018-09-24T00:03:35.891Z,21.3
2018-09-24T00:04:25.069Z,21.3
2018-09-24T00:05:15.682Z,21.3
2018-09-24T00:06:06.073Z,21.3
2018-09-24T00:06:56.184Z,21.3
2018-09-24T00:07:46.261Z,21.3
2018-09-24T00:08:36.229Z,21.3
2018-09-24T00:09:25.476Z,21.3
2018-09-24T00:10:16.582Z,21.3
2018-09-24T00:11:06.120Z,21.3
2018-09-24T00:11:56.211Z,21.3
2018-09-24T00:12:45.966Z,21.3
2018-09-24T00:13:35.727Z,21.3
2018-09-24T00:14:26.075Z,21.3
2018-09-24T00:15:17.028Z,21.3
2018-09-24T00:16:06.788Z,21.3
2018-09-24T00:16:56.020Z,21.3
2018-09-24T00:17:46.987Z,21.3
2018-09-24T00:18:36.680Z,21.3
2018-09-24T00:19:27.067Z,21.3
2018-09-24T00:20:17.422Z,21.3
2018-09-24T00:21:06.907Z,21.3
2018-09-24T00:21:56.725Z,21.3
2018-09-24T00:22:46.737Z,21.3
2018-09-24T00:23:37.339Z,21.3
2018-09-24T00:24:27.340Z,21.3
2018-09-24T00:25:16.626Z,21.3
2018-09-24T00:26:07.237Z,21.3
2018-09-24T00:26:56.753Z,21.3
2018-09-24T00:27:47.469Z,21.3
2018-09-24T00:28:37.461Z,21.3
2018-09-24T00:29:27.494Z,21.3
2018-09-24T00:30:17.612Z,21.3
2018-09-24T00:31:07.126Z,21.3
2018-09-24T00:31:57.138Z,21.3
2018-09-24T00:32:47.769Z,21.3
2018-09-24T00:33:36.870Z,21.3
2018-09-24T00:34:27.757Z,21.3
2018-09-24T00:35:18.258Z,21.3
2018-09-24T00:36:09.292Z,21.3
2018-09-24T00:36:57.623Z,21.3
2018-09-24T00:56:04.070Z,21.2
2018-09-24T00:56:53.324Z,21.2
2018-09-24T00:57:44.984Z,21.3
2018-09-24T00:58:34.204Z,21.3
2018-09-24T00:59:24.292Z,21.2
2018-09-24T01:00:14.902Z,21.3
2018-09-24T01:01:04.365Z,21.2
2018-09-24T01:01:54.444Z,21.3
2018-09-24T01:02:44.911Z,21.2
2018-09-24T01:03:34.871Z,21.3
2018-09-24T01:04:24.937Z,21.3
2018-09-24T01:05:13.594Z,21.2
2018-09-24T01:06:05.350Z,21.2
2018-09-24T01:06:54.811Z,21.2
2018-09-24T01:07:45.471Z,21.2
2018-09-24T01:08:34.951Z,21.2
2018-09-24T01:09:24.420Z,21.2
2018-09-24T01:10:14.811Z,21.2
2018-09-24T01:11:05.184Z,21.2
2018-09-24T01:11:54.664Z,21.2
2018-09-24T01:12:44.738Z,21.2
2018-09-24T01:13:35.086Z,21.2
2018-09-24T01:14:25.476Z,21.2
2018-09-24T01:15:14.904Z,21.2
2018-09-24T01:16:05.516Z,21.2
2018-09-24T01:16:55.811Z,21.2
2018-09-24T01:17:46.203Z,21.2
2018-09-24T01:18:35.770Z,21.2
2018-09-24T01:19:25.502Z,21.2
2018-09-24T01:20:15.003Z,21.2
2018-09-24T01:21:05.905Z,21.2
2018-09-24T01:21:56.234Z,21.2
2018-09-24T01:22:46.286Z,21.2
2018-09-24T01:23:36.120Z,21.2
2018-09-24T01:24:25.647Z,21.2
2018-09-24T01:25:15.975Z,21.2
2018-09-24T01:26:06.350Z,21.2
2018-09-24T01:26:55.821Z,21.2
2018-09-24T01:27:46.665Z,21.2
2018-09-24T01:28:36.218Z,21.2
2018-09-24T01:29:26.818Z,21.2
2018-09-24T01:30:15.793Z,21.2
2018-09-24T01:31:06.952Z,21.2
2018-09-24T01:31:57.255Z,21.2
2018-09-24T01:32:46.817Z,21.2
2018-09-24T01:33:36.868Z,21.2
2018-09-24T01:34:26.587Z,21.2
2018-09-24T01:35:16.402Z,21.2
2018-09-24T01:36:07.410Z,21.2
2018-09-24T01:36:57.192Z,21.2
2018-09-24T01:37:47.164Z,21.2
2018-09-24T01:39:27.547Z,21.2
2018-09-24T01:40:17.097Z,21.2
2018-09-24T01:41:07.477Z,21.2
2018-09-24T01:41:58.062Z,21.2
2018-09-24T01:43:38.016Z,21.2
2018-09-24T01:44:27.770Z,21.2
2018-09-24T01:49:28.029Z,21.2
2018-09-24T02:11:09.985Z,21.1
2018-09-24T02:15:19.655Z,21.1
2018-09-24T02:16:09.502Z,21.1
2018-09-24T02:17:50.000Z,21.1
2018-09-24T02:19:30.599Z,21.1
2018-09-24T02:21:10.992Z,21.1
2018-09-24T02:22:00.810Z,21.1
2018-09-24T02:25:21.007Z,21.1
2018-09-24T02:26:11.094Z,21.1
2018-09-24T02:27:01.196Z,21.1
2018-09-24T02:27:51.224Z,21.1
2018-09-24T02:29:31.329Z,21.1
2018-09-24T02:31:11.286Z,21.1
2018-09-24T02:32:01.587Z,21.1
2018-09-24T02:32:51.186Z,21.1
2018-09-24T02:33:41.699Z,21.1
2018-09-24T02:34:31.806Z,21.1
2018-09-24T02:35:21.581Z,21.1
2018-09-24T02:36:11.621Z,21.1
2018-09-24T02:37:01.697Z,21.1
2018-09-24T02:37:51.781Z,21.1
2018-09-24T02:38:41.763Z,21.1
2018-09-24T02:39:31.840Z,21.1
2018-09-24T02:40:22.459Z,21.1
2018-09-24T02:41:12.243Z,21.1
2018-09-24T02:42:02.259Z,21.1
2018-09-24T02:42:52.176Z,21.1
2018-09-24T02:43:41.883Z,21.1
2018-09-24T02:44:32.290Z,21.1
2018-09-24T02:45:22.932Z,21.1
2018-09-24T02:46:12.096Z,21.1
2018-09-24T02:47:02.683Z,21.1
2018-09-24T02:47:52.733Z,21.1
2018-09-24T02:48:42.552Z,21.1
2018-09-24T02:49:33.466Z,21.1
2018-09-24T02:50:22.397Z,21.1
2018-09-24T02:51:12.433Z,21.1
2018-09-24T02:52:02.493Z,21.1
2018-09-24T02:52:53.135Z,21.1
2018-09-24T02:53:42.056Z,21.1
2018-09-24T02:54:33.305Z,21.1
2018-09-24T02:55:22.520Z,21.1
2018-09-24T02:56:13.108Z,21.1
2018-09-24T02:57:03.665Z,21.1
2018-09-24T02:57:54.055Z,21.1
2018-09-24T02:58:43.882Z,21.1
2018-09-24T02:59:33.901Z,21.1
2018-09-24T03:00:23.787Z,21.1
2018-09-24T03:01:13.896Z,21.1
2018-09-24T03:02:03.884Z,21.1
2018-09-24T03:02:54.057Z,21.1
2018-09-24T03:03:43.087Z,21
2018-09-24T03:04:34.351Z,21
2018-09-24T03:05:24.459Z,21.1
2018-09-24T03:06:14.172Z,21
2018-09-24T03:07:03.860Z,21
2018-09-24T03:07:53.991Z,21.1
2018-09-24T03:08:43.832Z,21
2018-09-24T03:09:34.479Z,21
2018-09-24T03:10:24.457Z,21
2018-09-24T03:11:14.246Z,21
2018-09-24T03:12:03.799Z,21.1
2018-09-24T03:12:53.844Z,21
2018-09-24T03:13:44.750Z,21
2018-09-24T03:14:35.057Z,21.1
2018-09-24T03:15:25.102Z,21.1
2018-09-24T03:16:14.639Z,21
2018-09-24T03:17:04.706Z,21.1
2018-09-24T03:17:55.126Z,21
2018-09-24T03:18:45.364Z,21.1
2018-09-24T03:19:34.925Z,21.1
2018-09-24T03:20:24.997Z,21
2018-09-24T03:21:15.270Z,21
2018-09-24T03:22:05.356Z,21
2018-09-24T03:22:54.856Z,21
2018-09-24T03:23:45.734Z,21
2018-09-24T03:24:34.929Z,21
2018-09-24T03:25:27.159Z,21
2018-09-24T03:26:16.607Z,21
2018-09-24T03:27:06.104Z,21
2018-09-24T03:27:55.801Z,21
2018-09-24T03:28:45.277Z,21
2018-09-24T03:29:35.341Z,21
2018-09-24T03:30:25.773Z,21
2018-09-24T03:31:15.539Z,21
2018-09-24T03:32:05.940Z,21
2018-09-24T03:32:55.896Z,21
2018-09-24T03:33:46.291Z,21
2018-09-24T03:34:36.547Z,21
2018-09-24T03:35:26.628Z,21
2018-09-24T03:36:15.543Z,21
2018-09-24T03:37:06.758Z,21
2018-09-24T03:37:56.527Z,21
2018-09-24T03:38:46.924Z,21
2018-09-24T03:39:37.270Z,21
2018-09-24T03:40:26.728Z,21
2018-09-24T03:41:16.005Z,21
2018-09-24T03:42:08.833Z,21
2018-09-24T03:42:56.881Z,21
2018-09-24T03:43:46.689Z,21
2018-09-24T03:44:36.760Z,21
2018-09-24T03:45:26.940Z,20.9
2018-09-24T03:46:16.350Z,21
2018-09-24T03:47:06.734Z,21
2018-09-24T03:47:57.019Z,21
2018-09-24T03:48:46.489Z,21
2018-09-24T03:49:36.809Z,21
2018-09-24T03:50:27.450Z,21
2018-09-24T03:51:17.312Z,21
2018-09-24T03:52:07.882Z,21
2018-09-24T03:52:56.504Z,21
2018-09-24T03:53:47.460Z,21
2018-09-24T03:54:37.123Z,21
2018-09-24T03:55:28.462Z,21
2018-09-24T03:56:17.583Z,21
2018-09-24T03:57:07.959Z,21
2018-09-24T03:57:57.224Z,20.9
2018-09-24T03:58:48.421Z,20.9
2018-09-24T03:59:37.886Z,20.9
2018-09-24T04:00:28.237Z,20.9
2018-09-24T04:01:18.338Z,20.9
2018-09-24T04:02:07.528Z,20.9
2018-09-24T04:02:58.388Z,21
2018-09-24T04:03:48.806Z,20.9
2018-09-24T04:04:37.681Z,21
2018-09-24T04:05:28.893Z,20.9
2018-09-24T04:06:19.033Z,21
2018-09-24T04:07:08.476Z,20.9
2018-09-24T04:07:58.198Z,20.9
2018-09-24T04:08:48.593Z,20.9
2018-09-24T04:09:40.185Z,20.9
2018-09-24T04:10:29.004Z,20.9
2018-09-24T04:11:19.061Z,20.9
2018-09-24T04:12:08.280Z,20.9
2018-09-24T04:12:58.889Z,20.9
2018-09-24T04:13:48.080Z,20.9
2018-09-24T04:14:39.579Z,20.9
2018-09-24T04:15:29.032Z,20.9
2018-09-24T04:16:19.180Z,20.9
2018-09-24T04:17:08.357Z,20.9
2018-09-24T04:17:59.568Z,20.9
2018-09-24T04:18:49.639Z,20.9
2018-09-24T04:19:41.706Z,20.9
2018-09-24T04:20:30.047Z,20.9
2018-09-24T04:21:19.182Z,20.9
2018-09-24T04:22:09.325Z,20.9
2018-09-24T04:22:58.842Z,20.9
2018-09-24T04:23:49.112Z,20.9
2018-09-24T04:24:40.100Z,20.9
2018-09-24T04:25:29.943Z,20.9
2018-09-24T04:26:22.075Z,20.9
2018-09-24T04:27:09.973Z,20.9
2018-09-24T04:28:00.570Z,20.9
2018-09-24T04:28:50.404Z,20.9
2018-09-24T04:29:38.726Z,20.9
2018-09-24T04:30:29.642Z,20.9
2018-09-24T04:31:20.639Z,20.9
2018-09-24T04:32:10.598Z,20.9
2018-09-24T04:33:01.284Z,20.9
2018-09-24T04:33:51.041Z,20.9
2018-09-24T04:34:40.894Z,20.9
2018-09-24T04:35:30.891Z,20.9
2018-09-24T04:36:21.282Z,20.9
2018-09-24T04:37:10.727Z,20.9
2018-09-24T04:38:01.031Z,20.9
2018-09-24T04:38:51.128Z,20.9
2018-09-24T04:39:42.787Z,20.9
2018-09-24T04:40:31.038Z,20.9
2018-09-24T04:41:21.611Z,20.9
2018-09-24T04:42:11.783Z,20.9
2018-09-24T04:43:01.492Z,20.9
2018-09-24T04:43:51.587Z,20.9
2018-09-24T04:44:41.261Z,20.9
2018-09-24T04:45:31.616Z,20.9
2018-09-24T04:46:21.409Z,20.9
2018-09-24T04:47:11.768Z,20.9
2018-09-24T04:48:01.449Z,20.9
2018-09-24T04:48:51.273Z,20.9
2018-09-24T04:49:41.649Z,20.9
2018-09-24T04:50:31.749Z,20.9
2018-09-24T04:51:22.063Z,20.9
2018-09-24T04:52:12.881Z,20.9
2018-09-24T04:53:02.687Z,20.9
2018-09-24T04:53:51.950Z,20.9
2018-09-24T04:54:42.318Z,20.9
2018-09-24T04:55:32.379Z,20.9
2018-09-24T04:56:22.460Z,20.9
2018-09-24T04:57:13.313Z,20.9
2018-09-24T04:58:02.288Z,20.9
2018-09-24T04:58:53.176Z,20.9
2018-09-24T04:59:42.525Z,20.9
2018-09-24T05:00:32.233Z,20.9
2018-09-24T05:01:23.100Z,20.9
2018-09-24T05:02:13.140Z,20.9
2018-09-24T05:03:02.645Z,20.9
2018-09-24T05:03:53.027Z,20.9
2018-09-24T05:04:42.675Z,20.9
2018-09-24T05:05:32.807Z,20.9
2018-09-24T05:06:22.290Z,20.9
2018-09-24T05:07:13.805Z,20.9
2018-09-24T05:24:55.664Z,20.9
2018-09-24T05:25:44.839Z,20.9
2018-09-24T05:26:34.956Z,20.9
2018-09-24T05:27:25.726Z,20.9
2018-09-24T05:28:15.288Z,20.9
2018-09-24T05:29:04.796Z,20.9
2018-09-24T05:29:55.809Z,20.9
2018-09-24T05:30:45.506Z,20.9
2018-09-24T05:31:35.814Z,20.9
2018-09-24T05:32:27.239Z,20.9
2018-09-24T05:33:15.118Z,20.9
2018-09-24T05:34:05.560Z,20.9
2018-09-24T05:34:55.812Z,20.9
2018-09-24T05:35:45.075Z,20.9
2018-09-24T05:36:34.978Z,20.9
2018-09-24T05:37:25.225Z,20.9
2018-09-24T05:38:15.582Z,20.9
2018-09-24T05:39:05.073Z,20.9
2018-09-24T05:39:56.153Z,20.9
2018-09-24T05:40:45.764Z,20.9
2018-09-24T05:41:35.783Z,20.9
2018-09-24T05:42:26.375Z,20.9
2018-09-24T05:43:16.205Z,20.9
2018-09-24T05:44:06.780Z,20.9
2018-09-24T05:44:57.420Z,20.9
2018-09-24T05:45:46.047Z,20.9
2018-09-24T05:46:36.457Z,20.9
2018-09-24T05:47:25.942Z,20.9
2018-09-24T05:48:16.541Z,20.9
2018-09-24T05:49:06.123Z,20.9
2018-09-24T05:49:57.254Z,20.9
2018-09-24T05:50:47.245Z,20.9
2018-09-24T05:51:37.506Z,20.9
2018-09-24T05:52:29.284Z,20.9
2018-09-24T05:53:18.902Z,20.9
2018-09-24T05:54:08.613Z,20.9
2018-09-24T05:54:58.292Z,20.9
2018-09-24T05:55:51.571Z,20.9
2018-09-24T05:56:39.804Z,20.9
2018-09-24T05:57:27.830Z,20.9
2018-09-24T05:58:17.572Z,20.9
2018-09-24T05:59:07.379Z,20.9
2018-09-24T05:59:57.957Z,20.9
2018-09-24T06:00:48.875Z,20.9
2018-09-24T06:01:37.594Z,20.9
2018-09-24T06:02:28.170Z,20.9
2018-09-24T06:03:17.986Z,20.9
2018-09-24T06:04:08.044Z,20.9
2018-09-24T06:04:58.185Z,20.9
2018-09-24T06:05:48.638Z,20.9
2018-09-24T06:06:38.219Z,20.9
2018-09-24T06:07:28.216Z,20.9
2018-09-24T06:08:18.620Z,20.9
2018-09-24T06:09:08.121Z,20.9
2018-09-24T06:09:58.433Z,20.9
2018-09-24T06:10:50.166Z,20.9
2018-09-24T06:11:39.719Z,20.9
2018-09-24T06:12:29.474Z,20.9
2018-09-24T06:13:19.886Z,20.9
2018-09-24T06:14:09.561Z,20.9
2018-09-24T06:14:57.953Z,20.9
2018-09-24T06:15:48.638Z,20.9
2018-09-24T06:16:39.841Z,20.9
2018-09-24T06:17:28.196Z,20.9
2018-09-24T06:18:19.443Z,20.9
2018-09-24T06:19:10.211Z,20.9
2018-09-24T06:19:59.058Z,20.9
2018-09-24T06:20:48.641Z,20.9
2018-09-24T06:21:39.672Z,20.9
2018-09-24T06:22:29.151Z,20.9
2018-09-24T06:23:19.181Z,20.9
2018-09-24T06:24:09.798Z,20.9
2018-09-24T06:24:59.596Z,20.9
2018-09-24T06:25:49.684Z,20.9
2018-09-24T06:26:39.925Z,20.9
2018-09-24T06:27:29.745Z,20.9
2018-09-24T06:28:20.261Z,20.9
2018-09-24T06:29:09.642Z,20.9
2018-09-24T06:30:00.238Z,20.9
2018-09-24T06:30:49.730Z,20.9
2018-09-24T06:31:40.135Z,20.9
2018-09-24T06:32:30.165Z,20.9
2018-09-24T06:33:20.232Z,20.9
2018-09-24T06:34:10.320Z,20.9
2018-09-24T06:35:00.377Z,20.9
2018-09-24T06:35:50.096Z,20.9
2018-09-24T06:36:40.557Z,20.9
2018-09-24T06:37:29.950Z,20.9
2018-09-24T06:38:19.747Z,20.9
2018-09-24T06:39:10.672Z,20.9
2018-09-24T06:40:00.829Z,20.9
2018-09-24T06:40:50.237Z,20.9
2018-09-24T06:41:41.171Z,20.9
2018-09-24T06:42:31.468Z,20.9
2018-09-24T06:43:21.384Z,20.9
2018-09-24T06:44:10.295Z,20.9
2018-09-24T06:45:00.834Z,20.9
2018-09-24T06:45:51.820Z,20.9
2018-09-24T06:46:41.352Z,20.9
2018-09-24T06:47:31.957Z,20.9
2018-09-24T06:48:21.724Z,20.9
2018-09-24T06:49:10.861Z,20.9
2018-09-24T06:50:01.854Z,20.9
2018-09-24T06:50:51.629Z,20.9
2018-09-24T06:51:41.969Z,20.9
2018-09-24T06:52:32.358Z,20.9
2018-09-24T06:53:21.482Z,20.9
2018-09-24T06:54:11.956Z,20.9
2018-09-24T06:55:01.405Z,20.9
2018-09-24T06:55:51.406Z,20.9
2018-09-24T06:56:42.366Z,20.9
2018-09-24T06:57:31.814Z,20.9
2018-09-24T06:58:21.863Z,20.9
2018-09-24T06:59:12.211Z,20.9
2018-09-24T07:00:02.336Z,20.9
2018-09-24T07:00:51.592Z,20.9
2018-09-24T07:01:41.901Z,20.9
2018-09-24T07:02:32.768Z,20.9
2018-09-24T07:03:21.799Z,20.9
2018-09-24T07:04:12.674Z,20.9
2018-09-24T07:05:02.508Z,20.9
2018-09-24T07:05:53.463Z,20.9
2018-09-24T07:06:42.548Z,20.9
2018-09-24T07:07:32.950Z,20.9
2018-09-24T07:08:22.663Z,20.9
2018-09-24T07:09:12.670Z,20.9
2018-09-24T07:10:02.446Z,20.9
2018-09-24T07:10:52.488Z,20.9
2018-09-24T07:11:44.401Z,20.9
2018-09-24T07:12:34.233Z,20.9
2018-09-24T07:13:25.006Z,20.9
2018-09-24T07:14:14.294Z,20.9
2018-09-24T07:15:02.858Z,20.9
2018-09-24T07:15:53.450Z,20.9
2018-09-24T07:16:43.473Z,20.9
2018-09-24T07:17:33.839Z,20.9
2018-09-24T07:18:24.457Z,20.9
2018-09-24T07:19:12.858Z,20.9
2018-09-24T07:20:02.947Z,20.9
2018-09-24T07:20:53.860Z,20.9
2018-09-24T07:21:44.313Z,20.9
2018-09-24T07:22:33.662Z,20.9
2018-09-24T07:23:25.103Z,20.9
2018-09-24T07:24:13.304Z,20.9
2018-09-24T07:25:04.473Z,20.9
2018-09-24T07:25:54.529Z,20.9
2018-09-24T07:26:44.002Z,20.9
2018-09-24T07:27:34.602Z,20.9
2018-09-24T07:28:26.160Z,20.9
2018-09-24T07:29:13.982Z,20.9
2018-09-24T07:30:05.230Z,20.9
2018-09-24T07:30:54.780Z,20.9
2018-09-24T07:31:45.075Z,20.9
2018-09-24T07:32:34.472Z,20.9
2018-09-24T07:33:27.215Z,20.9
2018-09-24T07:34:15.396Z,20.9
2018-09-24T07:35:05.456Z,20.9
2018-09-24T07:35:54.822Z,20.9
2018-09-24T07:36:44.797Z,20.9
2018-09-24T07:37:35.407Z,20.9
2018-09-24T07:38:25.204Z,20.9
2018-09-24T07:39:14.942Z,20.9
2018-09-24T07:40:05.024Z,20.9
2018-09-24T07:40:54.868Z,20.9
2018-09-24T07:41:44.974Z,20.9
2018-09-24T07:42:35.771Z,20.9
2018-09-24T07:43:26.926Z,20.9
2018-09-24T07:44:15.377Z,20.9
2018-09-24T07:45:05.979Z,20.9
2018-09-24T07:45:54.706Z,20.9
2018-09-24T07:46:46.101Z,20.9
2018-09-24T07:47:35.586Z,20.9
2018-09-24T07:48:25.935Z,20.9
2018-09-24T07:49:16.311Z,20.9
2018-09-24T07:50:05.826Z,20.9
2018-09-24T07:50:55.914Z,20.9
2018-09-24T07:51:45.335Z,20.9
2018-09-24T07:52:36.251Z,20.9
2018-09-24T07:53:26.063Z,20.9
2018-09-24T07:54:17.183Z,20.9
2018-09-24T07:55:05.971Z,20.9
2018-09-24T07:55:56.026Z,20.9
2018-09-24T07:56:46.370Z,20.9
2018-09-24T07:57:36.383Z,20.9
2018-09-24T07:58:26.202Z,21
2018-09-24T07:59:16.608Z,20.9
2018-09-24T08:00:06.329Z,20.9
2018-09-24T08:00:57.863Z,20.9
2018-09-24T08:01:46.669Z,20.9
2018-09-24T08:02:36.175Z,20.9
2018-09-24T08:03:26.810Z,21
2018-09-24T08:04:16.125Z,20.9
2018-09-24T08:05:06.708Z,20.9
2018-09-24T08:05:56.775Z,21
2018-09-24T08:06:46.875Z,21
2018-09-24T08:07:39.773Z,21
2018-09-24T08:08:27.541Z,21
2018-09-24T08:09:17.577Z,21
2018-09-24T08:10:08.130Z,21
2018-09-24T08:10:58.172Z,21
2018-09-24T08:11:47.432Z,21
2018-09-24T08:12:37.269Z,21
2018-09-24T08:13:29.252Z,21
2018-09-24T08:14:17.734Z,21
2018-09-24T08:15:07.480Z,21
2018-09-24T08:15:58.392Z,21
2018-09-24T08:16:47.938Z,21
2018-09-24T08:17:37.924Z,21
2018-09-24T08:18:27.799Z,21
2018-09-24T08:19:18.572Z,21
2018-09-24T08:20:08.063Z,21
2018-09-24T08:20:58.382Z,21
2018-09-24T08:21:48.856Z,21
2018-09-24T08:22:38.571Z,21
2018-09-24T08:23:29.273Z,21
2018-09-24T08:24:18.981Z,21
2018-09-24T08:25:08.760Z,21
2018-09-24T08:25:59.391Z,21
2018-09-24T08:26:48.638Z,21
2018-09-24T08:27:38.358Z,21
2018-09-24T08:28:28.948Z,21
2018-09-24T08:29:19.023Z,21
2018-09-24T08:30:09.138Z,21
2018-09-24T08:30:59.178Z,21
2018-09-24T08:31:49.831Z,21
2018-09-24T08:32:39.640Z,21
2018-09-24T08:33:29.383Z,21
2018-09-24T08:34:19.684Z,21
2018-09-24T08:35:09.458Z,21
2018-09-24T08:35:59.385Z,21.1
2018-09-24T08:36:49.662Z,21.1
2018-09-24T08:37:39.490Z,21.1
2018-09-24T08:38:29.587Z,21
2018-09-24T08:39:19.307Z,21
2018-09-24T08:40:09.874Z,21
2018-09-24T08:40:59.094Z,21
2018-09-24T08:41:48.615Z,21
2018-09-24T08:42:39.230Z,21.1
2018-09-24T08:43:30.206Z,21.1
2018-09-24T08:44:21.177Z,21.1
2018-09-24T08:45:10.552Z,21.1
2018-09-24T08:46:00.152Z,21.1
2018-09-24T08:46:50.433Z,21.1
2018-09-24T08:47:39.907Z,21.1
2018-09-24T08:48:30.879Z,21.1
2018-09-24T08:49:20.022Z,21.1
2018-09-24T08:50:10.367Z,21.1
2018-09-24T08:51:00.966Z,21.1
2018-09-24T08:51:50.844Z,21.1
2018-09-24T08:52:40.829Z,21.1
2018-09-24T08:53:32.454Z,21.1
2018-09-24T08:54:21.043Z,21.1
2018-09-24T08:55:09.711Z,21.1
2018-09-24T08:56:00.824Z,21.1
2018-09-24T08:56:52.958Z,21.1
2018-09-24T08:57:41.571Z,21.1
2018-09-24T08:58:31.348Z,21.1
2018-09-24T08:59:21.476Z,21.1
2018-09-24T09:00:10.322Z,21.1
2018-09-24T09:01:01.198Z,21.1
2018-09-24T09:01:51.548Z,21.1
2018-09-24T09:02:42.263Z,21.1
2018-09-24T09:03:31.155Z,21.1
2018-09-24T09:04:21.798Z,21.1
2018-09-24T09:05:10.372Z,21.1
2018-09-24T09:06:02.095Z,21.1
2018-09-24T09:07:41.746Z,21.1
2018-09-24T09:08:33.557Z,21.1
2018-09-24T09:10:11.978Z,21.1
2018-09-24T09:11:01.946Z,21.1
2018-09-24T09:12:42.145Z,21.1
2018-09-24T09:14:23.076Z,21.1
2018-09-24T09:20:12.660Z,21.1
2018-09-24T16:40:10.609Z,21.2
2018-09-24T16:40:59.861Z,21.2
2018-09-24T16:41:49.640Z,21.2
2018-09-24T16:42:40.311Z,21.2
2018-09-24T16:43:31.100Z,21.2
2018-09-24T16:44:20.127Z,21.2
2018-09-24T16:46:00.025Z,21.2
2018-09-24T16:47:40.301Z,21.2
2018-09-24T16:48:30.426Z,21.2
2018-09-24T17:03:31.551Z,21.1
2018-09-24T17:05:11.687Z,21.1
2018-09-24T17:06:02.022Z,21.1
2018-09-24T17:07:41.574Z,21.1
2018-09-24T17:08:31.701Z,21.1
2018-09-24T17:09:21.674Z,21.1
2018-09-24T17:10:12.012Z,21.1
2018-09-24T17:11:54.316Z,21.1
2018-09-24T17:12:41.989Z,21.1
2018-09-24T17:13:32.594Z,21.1
2018-09-24T17:14:22.354Z,21.1
2018-09-24T17:15:12.228Z,21.1
2018-09-24T17:16:01.714Z,21.1
2018-09-24T17:16:52.544Z,21.1
2018-09-24T17:17:42.636Z,21.1
2018-09-24T17:18:32.139Z,21.1
2018-09-24T17:19:23.086Z,21.1
2018-09-24T17:20:12.522Z,21.1
2018-09-24T17:21:03.128Z,21.1
2018-09-24T17:21:52.383Z,21.1
2018-09-24T17:22:43.298Z,21.1
2018-09-24T17:23:32.575Z,21
2018-09-24T17:24:22.323Z,21.1
2018-09-24T17:25:13.221Z,21.1
2018-09-24T17:26:03.258Z,21
2018-09-24T17:26:53.601Z,21
2018-09-24T17:27:43.683Z,21
2018-09-24T17:28:33.441Z,21
2018-09-24T17:29:24.801Z,21
2018-09-24T17:30:13.064Z,21
2018-09-24T17:31:03.894Z,21
2018-09-24T17:31:53.111Z,21
2018-09-24T17:32:43.496Z,21
2018-09-24T17:33:33.873Z,21
2018-09-24T17:34:23.605Z,21
2018-09-24T17:35:14.697Z,21
2018-09-24T17:36:04.348Z,21
2018-09-24T17:36:54.557Z,21
2018-09-24T17:37:44.407Z,21
2018-09-24T17:38:34.199Z,21
2018-09-24T17:39:24.018Z,20.9
2018-09-24T17:40:14.040Z,20.9
2018-09-24T17:41:04.739Z,21
2018-09-24T17:41:53.629Z,20.9
2018-09-24T17:42:44.809Z,21
2018-09-24T17:43:33.459Z,20.9
2018-09-24T17:44:24.086Z,20.9
2018-09-24T17:45:14.716Z,21
2018-09-24T17:46:05.694Z,20.9
2018-09-24T17:46:54.877Z,20.9
2018-09-24T17:47:45.237Z,20.9
2018-09-24T17:48:34.666Z,20.9
2018-09-24T17:49:24.730Z,20.9
2018-09-24T17:50:14.471Z,20.9
2018-09-24T17:51:05.442Z,20.9
2018-09-24T17:51:54.635Z,20.9
2018-09-24T17:52:45.445Z,20.9
2018-09-24T17:53:35.008Z,20.9
2018-09-24T17:54:25.680Z,20.9
2018-09-24T17:55:15.491Z,20.9
2018-09-24T17:56:05.182Z,20.9
2018-09-24T17:56:55.800Z,20.9
2018-09-24T17:57:45.363Z,20.9
2018-09-24T17:58:36.235Z,20.9
2018-09-24T17:59:25.492Z,20.9
2018-09-24T18:00:16.555Z,20.9
2018-09-24T18:01:05.632Z,20.9
2018-09-24T18:01:56.504Z,20.9
2018-09-24T18:02:45.708Z,20.9
2018-09-24T18:03:36.595Z,20.9
2018-09-24T18:04:25.062Z,20.9
2018-09-24T18:05:15.674Z,20.9
2018-09-24T18:06:07.121Z,20.9
2018-09-24T18:06:55.437Z,20.9
2018-09-24T18:07:46.675Z,20.9
2018-09-24T18:08:36.454Z,20.9
2018-09-24T18:09:26.214Z,20.9
2018-09-24T18:10:16.567Z,20.9
2018-09-24T18:11:06.921Z,20.9
2018-09-24T18:11:57.048Z,20.9
2018-09-24T18:12:46.789Z,20.9
2018-09-24T18:13:36.025Z,20.9
2018-09-24T18:14:27.208Z,20.8
2018-09-24T18:15:16.440Z,20.9
2018-09-24T18:16:06.194Z,20.8
2018-09-24T18:16:57.378Z,20.8
2018-09-24T18:17:48.597Z,20.8
2018-09-24T18:18:37.744Z,20.8
2018-09-24T18:19:27.575Z,20.8
2018-09-24T18:20:17.612Z,20.8
2018-09-24T18:21:07.139Z,20.8
2018-09-24T18:21:56.946Z,20.8
2018-09-24T18:22:47.257Z,20.8
2018-09-24T18:23:37.013Z,20.8
2018-09-24T18:24:28.533Z,20.8
2018-09-24T18:25:17.434Z,20.8
2018-09-24T18:26:07.534Z,20.8
2018-09-24T18:26:58.113Z,20.8
2018-09-24T18:27:46.753Z,20.8
2018-09-24T18:28:38.203Z,20.8
2018-09-24T18:29:27.743Z,20.8
2018-09-24T18:30:17.843Z,20.8
2018-09-24T18:31:08.439Z,20.8
2018-09-24T18:31:57.459Z,20.8
2018-09-24T18:32:47.994Z,20.8
2018-09-24T18:33:38.366Z,20.8
2018-09-24T18:34:28.661Z,20.8
2018-09-24T18:35:18.461Z,20.8
2018-09-24T18:36:07.974Z,20.8
2018-09-24T18:36:58.903Z,20.8
2018-09-24T18:37:49.583Z,20.8
2018-09-24T18:38:38.846Z,20.8
2018-09-24T18:39:28.597Z,20.8
2018-09-24T18:40:19.218Z,20.8
2018-09-24T18:41:10.298Z,20.8
2018-09-24T18:41:59.001Z,20.8
2018-09-24T18:42:49.633Z,20.8
2018-09-24T18:43:39.403Z,20.8
2018-09-24T18:44:30.256Z,20.8
2018-09-24T18:45:19.287Z,20.8
2018-09-24T18:46:09.570Z,20.8
2018-09-24T18:46:59.080Z,20.8
2018-09-24T18:47:48.666Z,20.8
2018-09-24T18:48:39.480Z,20.7
2018-09-24T18:49:29.812Z,20.7
2018-09-24T18:50:19.348Z,20.7
2018-09-24T18:51:08.833Z,20.7
2018-09-24T18:51:59.999Z,20.7
2018-09-24T18:52:49.528Z,20.7
2018-09-24T18:53:39.563Z,20.7
2018-09-24T18:54:30.433Z,20.7
2018-09-24T18:55:19.430Z,20.7
2018-09-24T18:56:10.072Z,20.7
2018-09-24T18:56:59.605Z,20.7
2018-09-24T18:57:51.841Z,20.7
2018-09-24T18:58:40.526Z,20.7
2018-09-24T18:59:30.615Z,20.7
2018-09-24T19:00:20.670Z,20.7
2018-09-24T19:01:11.025Z,20.7
2018-09-24T19:02:00.515Z,20.7
2018-09-24T19:02:50.590Z,20.7
2018-09-24T19:03:40.616Z,20.7
2018-09-24T19:04:30.157Z,20.7
2018-09-24T19:05:21.330Z,20.7
2018-09-24T19:06:10.837Z,20.7
2018-09-24T19:07:00.889Z,20.7
2018-09-24T19:07:51.012Z,20.7
2018-09-24T19:08:40.460Z,20.7
2018-09-24T19:09:31.022Z,20.7
2018-09-24T19:10:20.795Z,20.7
2018-09-24T19:11:10.592Z,20.6
2018-09-24T19:12:01.908Z,20.6
2018-09-24T19:12:51.353Z,20.7
2018-09-24T19:13:41.370Z,20.6
2018-09-24T19:14:31.165Z,20.6
2018-09-24T19:15:21.024Z,20.6
2018-09-24T19:16:11.624Z,20.6
2018-09-24T19:17:01.366Z,20.6
2018-09-24T19:17:52.066Z,20.6
2018-09-24T19:18:42.979Z,20.6
2018-09-24T19:19:32.102Z,20.6
2018-09-24T19:20:21.061Z,20.6
2018-09-24T19:21:11.668Z,20.6
2018-09-24T19:22:02.263Z,20.6
2018-09-24T19:22:51.516Z,20.6
2018-09-24T19:23:42.487Z,20.6
2018-09-24T19:24:32.219Z,20.6
2018-09-24T19:25:21.384Z,20.6
2018-09-24T19:26:12.323Z,20.6
2018-09-24T19:27:02.860Z,20.6
2018-09-24T19:27:52.206Z,20.6
2018-09-24T19:28:42.738Z,20.6
2018-09-24T19:29:32.580Z,20.6
2018-09-24T19:30:23.148Z,20.6
2018-09-24T19:31:12.206Z,20.6
2018-09-24T19:32:02.283Z,20.6
2018-09-24T19:32:52.947Z,20.6
2018-09-24T19:33:42.643Z,20.6
2018-09-24T19:34:33.058Z,20.6
2018-09-24T19:35:23.633Z,20.6
2018-09-24T19:36:13.060Z,20.6
2018-09-24T19:37:06.585Z,20.6
2018-09-24T19:37:53.220Z,20.6
2018-09-24T19:38:43.515Z,20.6
2018-09-24T19:39:33.065Z,20.6
2018-09-24T19:40:23.391Z,20.6
2018-09-24T19:41:13.211Z,20.6
2018-09-24T19:42:03.787Z,20.6
2018-09-24T19:42:53.837Z,20.6
2018-09-24T19:43:43.628Z,20.6
2018-09-24T19:44:33.200Z,20.6
2018-09-24T19:45:22.930Z,20.6
2018-09-24T19:46:13.562Z,20.6
2018-09-24T19:47:03.619Z,20.6
2018-09-24T19:47:54.565Z,20.6
2018-09-24T19:48:43.957Z,20.6
2018-09-24T19:49:34.080Z,20.6
2018-09-24T19:50:24.107Z,20.6
2018-09-24T19:51:14.476Z,20.6
2018-09-24T19:52:04.299Z,20.6
2018-09-24T19:52:54.884Z,20.6
2018-09-24T19:53:44.991Z,20.6
2018-09-24T19:54:33.686Z,20.6
2018-09-24T19:55:25.149Z,20.6
2018-09-24T19:56:14.047Z,20.6
2018-09-24T19:57:04.067Z,20.6
2018-09-24T19:57:55.003Z,20.6
2018-09-24T19:58:45.398Z,20.6
2018-09-24T19:59:34.628Z,20.6
2018-09-24T20:00:24.676Z,20.6
2018-09-24T20:01:15.016Z,20.6
2018-09-24T20:02:05.859Z,20.5
2018-09-24T20:02:55.141Z,20.5
2018-09-24T20:03:45.491Z,20.6
2018-09-24T20:04:35.498Z,20.5
2018-09-24T20:05:24.988Z,20.5
2018-09-24T20:06:14.752Z,20.5
2018-09-24T20:07:05.685Z,20.5
2018-09-24T20:07:56.258Z,20.6
2018-09-24T20:08:45.910Z,20.6
2018-09-24T20:09:34.760Z,20.5
2018-09-24T20:10:25.454Z,20.5